Time;durP1;ratioP1;P1;durP2;ratioP2;P2;SDS_P1;SDS_P2;PMS_P1;PMS_P2;Temp;Humidity;BMP_temperature;BMP_pressure;BME280_temperature;BME280_humidity;BME280_pressure;Samples;Min_cycle;Max_cycle;Signal;HPM_P1;HPM_P2
2023/05/08 00:02:17;;;;;;;4.90;3.80;;;;;;;2.35;77.22;101902.88;105658;276;38503;-73
2023/05/08 00:04:54;;;;;;;6.90;4.70;;;;;;;2.30;77.29;101901.77;105542;277;38466;-73
2023/05/08 00:07:34;;;;;;;6.30;4.60;;;;;;;2.28;77.54;101903.09;105671;276;38266;-73
2023/05/08 00:10:12;;;;;;;8.80;5.40;;;;;;;2.24;77.51;101903.89;105650;276;40218;-73
2023/05/08 00:12:47;;;;;;;7.10;4.80;;;;;;;2.23;77.61;101905.23;105691;276;39183;-73
2023/05/08 00:15:24;;;;;;;7.40;5.10;;;;;;;2.21;77.56;101906.73;105680;276;38620;-73
2023/05/08 00:18:03;;;;;;;7.50;4.80;;;;;;;2.20;77.64;101903.29;105669;276;38807;-73
2023/05/08 00:20:38;;;;;;;10.40;6.20;;;;;;;2.18;77.48;101905.81;106160;276;39969;-72
2023/05/08 00:23:15;;;;;;;10.40;6.40;;;;;;;2.13;77.77;101909.33;105634;276;38804;-73
2023/05/08 00:25:50;;;;;;;10.50;6.40;;;;;;;2.11;77.79;101911.00;105654;276;38928;-74
2023/05/08 00:28:26;;;;;;;13.10;6.80;;;;;;;2.09;77.77;101913.53;106127;277;39400;-74
2023/05/08 00:31:01;;;;;;;9.90;6.00;;;;;;;2.04;77.51;101912.23;105686;276;38253;-72
2023/05/08 00:33:39;;;;;;;6.30;4.90;;;;;;;1.99;77.55;101914.71;105655;277;38271;-72
2023/05/08 00:36:16;;;;;;;7.60;5.40;;;;;;;1.96;77.62;101914.48;105544;277;174985;-72
2023/05/08 00:38:52;;;;;;;6.50;4.90;;;;;;;1.93;77.60;101915.26;105650;276;39947;-72
2023/05/08 00:41:29;;;;;;;5.60;4.40;;;;;;;1.89;77.55;101914.13;106130;277;38320;-72
2023/05/08 00:44:08;;;;;;;5.50;4.60;;;;;;;1.81;77.45;101918.26;106110;277;38575;-73
2023/05/08 00:46:46;;;;;;;6.60;4.50;;;;;;;1.76;77.68;101922.45;106137;277;38712;-72
2023/05/08 00:49:22;;;;;;;6.50;4.50;;;;;;;1.74;77.76;101924.98;105663;265;38511;-72
2023/05/08 00:51:59;;;;;;;5.30;3.80;;;;;;;1.73;78.00;101925.84;106116;276;38858;-72
2023/05/08 00:54:37;;;;;;;6.50;4.50;;;;;;;1.72;77.99;101924.76;105540;276;174908;-72
2023/05/08 00:57:11;;;;;;;6.10;5.00;;;;;;;1.68;77.95;101931.20;106107;276;39134;-73
2023/05/08 00:59:46;;;;;;;5.10;4.50;;;;;;;1.59;77.86;101933.41;105679;276;38895;-73
2023/05/08 01:02:21;;;;;;;7.60;4.70;;;;;;;1.56;77.94;101938.16;106140;276;38242;-73
2023/05/08 01:05:01;;;;;;;5.50;4.70;;;;;;;1.56;78.12;101945.21;106147;277;39489;-73
2023/05/08 01:07:39;;;;;;;5.90;4.70;;;;;;;1.54;78.14;101945.86;105645;276;39404;-73
2023/05/08 01:10:15;;;;;;;6.30;4.20;;;;;;;1.54;78.31;101946.35;105650;276;39794;-73
2023/05/08 01:13:15;;;;;;;5.90;4.10;;;;;;;1.51;78.20;101945.08;105674;276;39390;-73
2023/05/08 01:15:56;;;;;;;5.40;4.40;;;;;;;1.44;78.20;101952.66;106104;277;38893;-73
2023/05/08 01:18:39;;;;;;;7.00;4.80;;;;;;;1.41;78.19;101955.48;106132;276;38962;-73
2023/05/08 01:21:20;;;;;;;6.30;4.30;;;;;;;1.39;78.22;101954.59;106105;276;38828;-73
2023/05/08 01:24:23;;;;;;;5.70;4.50;;;;;;;1.36;78.26;101953.47;105681;276;38415;-73
2023/05/08 01:27:43;;;;;;;5.10;4.20;;;;;;;1.36;78.45;101955.19;105667;276;40153;-73
2023/05/08 01:30:56;;;;;;;7.00;4.90;;;;;;;1.29;78.59;101957.96;105422;277;38724;-73
2023/05/08 01:33:40;;;;;;;4.50;4.00;;;;;;;1.26;78.68;101964.06;105248;282;38503;-73
2023/05/08 01:36:30;;;;;;;5.10;4.50;;;;;;;1.25;78.70;101960.42;104375;277;1387615;-73
2023/05/08 01:39:13;;;;;;;5.80;4.40;;;;;;;1.26;78.75;101963.40;105535;277;38318;-73
2023/05/08 01:41:57;;;;;;;8.10;5.20;;;;;;;1.25;78.78;101964.04;105633;276;39727;-72
2023/05/08 01:44:36;;;;;;;9.20;6.40;;;;;;;1.21;78.70;101966.52;105664;276;38432;-72
2023/05/08 01:47:10;;;;;;;;;;;;;;;1.17;78.67;101972.24;105679;284;40105;-72
2023/05/08 01:49:49;;;;;;;9.80;8.40;;;;;;;1.07;78.62;101973.88;105674;277;38267;-72
2023/05/08 01:52:32;;;;;;;10.20;8.20;;;;;;;1.04;78.75;101972.43;105653;276;38623;-72
2023/05/08 01:55:11;;;;;;;9.40;7.60;;;;;;;1.03;78.76;101974.30;105632;276;38704;-73
2023/05/08 01:57:49;;;;;;;12.60;8.30;;;;;;;1.02;78.87;101974.09;105660;276;38276;-72
2023/05/08 02:00:27;;;;;;;11.30;8.90;;;;;;;1.00;78.89;101974.04;106121;276;39434;-72
2023/05/08 02:03:01;;;;;;;8.60;7.70;;;;;;;0.94;78.64;101973.19;106141;276;40286;-73
2023/05/08 02:05:38;;;;;;;9.90;6.80;;;;;;;0.89;78.74;101977.00;105691;276;39607;-72
2023/05/08 02:08:13;;;;;;;8.30;7.00;;;;;;;0.90;78.87;101975.13;105671;276;38588;-72
2023/05/08 02:10:49;;;;;;;8.30;6.40;;;;;;;0.86;78.72;101981.89;105690;276;38421;-72
2023/05/08 02:13:24;;;;;;;10.20;7.20;;;;;;;0.83;78.76;101981.11;106113;276;38240;-72
2023/05/08 02:16:01;;;;;;;7.90;7.10;;;;;;;0.79;78.90;101980.33;105616;276;38328;-72
2023/05/08 02:18:35;;;;;;;9.00;7.20;;;;;;;0.76;78.92;101980.42;106029;277;39202;-73
2023/05/08 02:21:12;;;;;;;9.00;6.10;;;;;;;0.74;78.98;101980.18;105619;277;39526;-73
2023/05/08 02:23:49;;;;;;;9.50;7.20;;;;;;;0.71;79.02;101982.52;106009;277;39405;-73
2023/05/08 02:26:26;;;;;;;7.10;6.40;;;;;;;0.65;78.95;101986.30;106083;277;39472;-72
2023/05/08 02:29:02;;;;;;;7.80;6.50;;;;;;;0.61;79.10;101984.62;105614;277;39937;-72
2023/05/08 02:31:38;;;;;;;10.10;7.20;;;;;;;0.58;79.15;101983.00;105614;277;39685;-72
2023/05/08 02:34:12;;;;;;;7.70;6.50;;;;;;;0.55;79.28;101980.17;105577;277;38595;-72
2023/05/08 02:36:50;;;;;;;6.40;5.70;;;;;;;0.52;79.26;101982.65;106018;277;38385;-72
2023/05/08 02:39:26;;;;;;;6.50;5.70;;;;;;;0.49;79.40;101982.08;106000;277;38412;-72
2023/05/08 02:42:02;;;;;;;8.10;6.00;;;;;;;0.46;79.41;101985.25;105632;277;39677;-72
2023/05/08 02:44:39;;;;;;;8.30;6.80;;;;;;;0.46;79.50;101984.38;105641;277;39934;-72
2023/05/08 02:47:21;;;;;;;9.30;6.90;;;;;;;0.46;79.59;101981.63;105978;277;40229;-72
2023/05/08 02:49:58;;;;;;;8.50;7.60;;;;;;;0.48;79.89;101982.71;105615;277;38382;-72
2023/05/08 02:52:35;;;;;;;11.30;8.40;;;;;;;0.49;79.93;101980.70;105575;277;38458;-72
2023/05/08 02:55:19;;;;;;;15.70;12.90;;;;;;;0.46;79.66;101983.87;105478;277;175082;-72
2023/05/08 02:58:05;;;;;;;15.00;13.10;;;;;;;0.46;79.89;101984.04;105590;277;39660;-72
2023/05/08 03:00:45;;;;;;;21.50;18.80;;;;;;;0.45;79.78;101985.56;105510;277;175098;-72
2023/05/08 03:03:26;;;;;;;25.80;21.20;;;;;;;0.43;79.83;101986.86;105626;277;38457;-72
2023/05/08 03:06:06;;;;;;;23.40;20.50;;;;;;;0.43;80.08;101986.37;105611;277;38489;-72
2023/05/08 03:08:42;;;;;;;20.80;18.40;;;;;;;0.41;79.98;101986.29;105983;277;38823;-72
2023/05/08 03:11:18;;;;;;;20.50;18.40;;;;;;;0.39;80.00;101989.31;105561;277;38490;-72
2023/05/08 03:13:54;;;;;;;14.60;12.10;;;;;;;0.38;80.06;101991.34;105597;277;39739;-72
2023/05/08 03:16:28;;;;;;;14.90;13.20;;;;;;;0.41;80.32;101994.88;105570;277;39811;-72
2023/05/08 03:19:06;;;;;;;11.30;9.90;;;;;;;0.42;80.20;101999.55;105545;277;39650;-72
2023/05/08 03:21:45;;;;;;;11.80;9.30;;;;;;;0.43;80.33;102005.05;105569;277;38934;-72
2023/05/08 03:24:20;;;;;;;11.10;9.20;;;;;;;0.42;80.44;102002.80;105556;277;38916;-72
2023/05/08 03:26:54;;;;;;;10.40;8.70;;;;;;;0.41;80.48;102005.35;105334;277;175024;-72
2023/05/08 03:29:30;;;;;;;10.70;8.00;;;;;;;0.42;80.66;102009.48;105573;277;38490;-72
2023/05/08 03:32:05;;;;;;;11.10;8.40;;;;;;;0.46;80.79;102009.96;105626;277;38392;-72
2023/05/08 03:34:40;;;;;;;8.70;7.80;;;;;;;0.50;80.79;102011.11;105978;277;38265;-72
2023/05/08 03:37:14;;;;;;;10.60;7.90;;;;;;;0.56;81.01;102009.23;105395;277;38254;-72
2023/05/08 03:39:52;;;;;;;10.60;8.20;;;;;;;0.66;81.22;102011.22;105656;277;38309;-72
2023/05/08 03:42:26;;;;;;;9.50;7.60;;;;;;;0.99;81.90;102009.42;106001;277;38983;-72
2023/05/08 03:45:03;;;;;;;9.90;7.90;;;;;;;1.35;82.67;102011.39;105669;277;39577;-72
2023/05/08 03:47:38;;;;;;;8.30;7.50;;;;;;;1.95;83.17;102007.55;105985;277;39389;-72
2023/05/08 03:50:17;;;;;;;9.80;7.60;;;;;;;2.84;83.47;101998.96;105988;277;38492;-72
2023/05/08 03:52:54;;;;;;;9.80;7.60;;;;;;;3.78;84.31;102001.00;105626;277;38250;-72
2023/05/08 03:55:31;;;;;;;8.40;7.30;;;;;;;4.81;83.25;101999.66;105969;277;39628;-72
2023/05/08 03:58:14;;;;;;;8.50;7.60;;;;;;;5.70;80.88;101992.08;105619;277;39670;-73
2023/05/08 04:01:01;;;;;;;8.30;7.40;;;;;;;6.52;78.07;101992.96;105634;277;39415;-73
2023/05/08 04:03:56;;;;;;;10.90;6.60;;;;;;;7.32;75.63;101994.95;105645;277;38224;-73
2023/05/08 04:06:34;;;;;;;8.60;6.00;;;;;;;8.13;73.57;101998.76;105972;277;38841;-73
2023/05/08 04:09:13;;;;;;;10.10;6.60;;;;;;;8.55;70.60;101996.92;105661;277;38583;-73
2023/05/08 04:11:52;;;;;;;;;;;;;;;8.31;67.97;102001.85;105694;277;38359;-73
2023/05/08 04:14:31;;;;;;;9.50;6.40;;;;;;;7.70;67.04;102004.36;105637;277;38916;-73
2023/05/08 04:17:08;;;;;;;9.20;7.00;;;;;;;7.26;66.72;102007.27;105399;277;38677;-73
2023/05/08 04:19:47;;;;;;;9.00;6.70;;;;;;;6.89;67.43;102013.95;105639;277;39425;-73
2023/05/08 04:22:27;;;;;;;9.60;6.70;;;;;;;6.63;67.98;102019.04;105651;277;38331;-73
2023/05/08 04:25:04;;;;;;;11.30;7.70;;;;;;;6.45;68.56;102021.55;105636;277;40111;-73
2023/05/08 04:27:42;;;;;;;13.80;8.30;;;;;;;6.28;69.18;102024.05;105968;277;38284;-73
2023/05/08 04:30:17;;;;;;;10.50;8.10;;;;;;;6.13;69.62;102027.23;105890;277;174719;-73
2023/05/08 04:32:52;;;;;;;13.10;8.60;;;;;;;6.04;70.31;102033.41;106008;277;38446;-74
2023/05/08 04:35:29;;;;;;;13.20;9.00;;;;;;;5.93;70.82;102036.27;105626;277;39379;-74
2023/05/08 04:38:08;;;;;;;13.60;8.70;;;;;;;5.90;71.55;102032.08;105629;277;38982;-73
2023/05/08 04:40:45;;;;;;;12.20;8.80;;;;;;;5.91;72.01;102036.76;105646;277;39622;-73
2023/05/08 04:43:21;;;;;;;13.00;9.30;;;;;;;6.05;72.83;102033.59;105660;277;39665;-73
2023/05/08 04:45:59;;;;;;;15.10;10.30;;;;;;;6.72;75.27;102033.28;105664;277;38517;-73
2023/05/08 04:48:36;;;;;;;15.00;10.30;;;;;;;8.13;78.46;102031.08;105651;277;38853;-74
2023/05/08 04:51:10;;;;;;;17.80;9.80;;;;;;;9.81;76.86;102031.34;105361;277;40600;-74
2023/05/08 04:53:45;;;;;;;14.60;9.50;;;;;;;11.27;72.89;102026.58;105666;277;38495;-74
2023/05/08 04:56:25;;;;;;;16.50;9.10;;;;;;;12.62;67.66;102030.95;105663;277;40124;-73
2023/05/08 04:59:02;;;;;;;17.80;9.30;;;;;;;13.88;63.54;102030.22;105646;277;38345;-73
2023/05/08 05:01:37;;;;;;;15.60;9.90;;;;;;;15.01;59.11;102031.54;105644;277;38478;-74
2023/05/08 05:04:14;;;;;;;16.30;9.10;;;;;;;15.90;54.87;102031.02;105405;278;39961;-74
2023/05/08 05:06:49;;;;;;;20.30;8.50;;;;;;;16.73;52.12;102037.06;106029;277;38256;-74
2023/05/08 05:09:29;;;;;;;11.70;7.30;;;;;;;17.44;50.36;102030.46;105638;277;38386;-73
2023/05/08 05:12:05;;;;;;;12.00;7.00;;;;;;;17.97;47.02;102036.06;105547;277;173937;-74
2023/05/08 05:14:41;;;;;;;11.30;8.20;;;;;;;18.49;44.74;102039.08;105657;277;39943;-74
2023/05/08 05:17:18;;;;;;;11.00;7.60;;;;;;;18.96;42.73;102038.56;104992;277;892977;-73
2023/05/08 05:19:54;;;;;;;9.00;6.10;;;;;;;19.37;41.51;102036.45;106025;277;38230;-74
2023/05/08 05:22:29;;;;;;;7.90;5.40;;;;;;;19.81;41.37;102039.83;105655;277;38678;-74
2023/05/08 05:25:08;;;;;;;6.30;5.00;;;;;;;20.07;40.31;102043.27;106038;277;38274;-74
2023/05/08 05:27:42;;;;;;;5.20;4.70;;;;;;;20.04;39.50;102043.44;106029;277;38263;-74
2023/05/08 05:30:27;;;;;;;7.90;5.60;;;;;;;20.09;39.42;102047.40;105649;277;38468;-74
2023/05/08 05:33:07;;;;;;;5.50;4.40;;;;;;;20.50;38.35;102047.25;105627;277;39601;-73
2023/05/08 05:35:44;;;;;;;6.10;4.50;;;;;;;20.96;38.17;102050.45;106073;277;39905;-73
2023/05/08 05:38:19;;;;;;;9.00;4.20;;;;;;;21.58;37.04;102041.82;106070;277;38968;-73
2023/05/08 05:40:55;;;;;;;10.50;5.90;;;;;;;22.25;36.88;102044.08;105663;277;38361;-73
2023/05/08 05:43:29;;;;;;;5.70;4.60;;;;;;;22.87;34.80;102045.25;106052;277;39517;-73
2023/05/08 05:46:08;;;;;;;5.70;4.50;;;;;;;23.22;33.72;102041.43;105608;277;39654;-73
2023/05/08 05:48:50;;;;;;;6.40;4.40;;;;;;;23.46;31.71;102034.89;105668;277;38509;-73
2023/05/08 05:51:28;;;;;;;4.10;3.70;;;;;;;23.77;32.13;102034.13;105635;277;40129;-74
2023/05/08 05:54:05;;;;;;;5.50;4.40;;;;;;;24.29;30.99;102040.67;105428;278;38557;-74
2023/05/08 05:56:40;;;;;;;4.10;3.70;;;;;;;24.60;30.19;102044.95;105458;278;38497;-74
2023/05/08 05:59:15;;;;;;;6.40;3.60;;;;;;;24.98;29.33;102044.64;105443;278;38559;-75
2023/05/08 06:01:50;;;;;;;4.10;3.30;;;;;;;25.17;28.79;102046.77;105857;278;39303;-75
2023/05/08 06:04:27;;;;;;;3.10;2.10;;;;;;;25.24;27.14;102046.25;105439;278;39124;-75
2023/05/08 06:07:02;;;;;;;3.40;2.40;;;;;;;24.99;26.45;102044.52;105826;286;39661;-74
2023/05/08 06:09:41;;;;;;;4.40;2.60;;;;;;;25.02;27.26;102044.98;105465;278;38541;-74
2023/05/08 06:12:17;;;;;;;2.90;2.30;;;;;;;25.45;26.57;102044.70;105855;278;39689;-74
2023/05/08 06:14:51;;;;;;;3.30;2.30;;;;;;;25.52;25.97;102045.67;105814;278;38529;-75
2023/05/08 06:17:28;;;;;;;5.90;2.80;;;;;;;25.56;25.95;102044.48;105420;278;38304;-74
2023/05/08 06:20:03;;;;;;;4.40;2.60;;;;;;;25.35;25.00;102052.97;105845;278;38441;-74
2023/05/08 06:22:41;;;;;;;6.40;2.60;;;;;;;25.52;26.41;102046.03;105400;279;38347;-74
2023/05/08 06:25:16;;;;;;;4.40;2.60;;;;;;;25.93;25.15;102046.68;105393;279;39991;-74
2023/05/08 06:27:51;;;;;;;4.80;2.60;;;;;;;25.95;24.62;102049.07;105830;278;38288;-74
2023/05/08 06:30:29;;;;;;;4.40;2.70;;;;;;;26.04;24.39;102046.17;105393;278;39502;-74
2023/05/08 06:33:05;;;;;;;4.50;2.80;;;;;;;26.24;24.31;102044.48;105440;278;40033;-74
2023/05/08 06:35:45;;;;;;;3.40;2.10;;;;;;;26.53;24.01;102040.79;105866;278;38594;-74
2023/05/08 06:38:20;;;;;;;2.00;1.80;;;;;;;26.97;23.35;102036.20;105853;278;38534;-74
2023/05/08 06:40:55;;;;;;;2.90;2.30;;;;;;;27.19;22.65;102034.89;105450;278;39571;-75
2023/05/08 06:43:33;;;;;;;4.10;2.70;;;;;;;27.17;22.47;102033.66;105450;278;38902;-75
2023/05/08 06:46:08;;;;;;;4.00;2.40;;;;;;;27.19;22.70;102032.58;105409;278;38418;-73
2023/05/08 06:48:44;;;;;;;2.50;2.20;;;;;;;27.27;22.48;102036.25;105454;278;39071;-74
2023/05/08 06:51:21;;;;;;;4.60;2.30;;;;;;;27.43;22.07;102042.28;105462;278;38271;-75
2023/05/08 06:53:56;;;;;;;3.40;2.60;;;;;;;27.66;22.19;102036.91;105612;277;39686;-75
2023/05/08 06:56:32;;;;;;;4.70;2.70;;;;;;;27.69;21.51;102034.54;105646;277;40111;-75
2023/05/08 06:59:10;;;;;;;5.20;2.50;;;;;;;27.50;20.71;102038.07;106066;277;39455;-75
2023/05/08 07:01:45;;;;;;;3.30;2.20;;;;;;;27.42;21.45;102037.52;105654;277;39631;-75
2023/05/08 07:04:23;;;;;;;7.10;2.80;;;;;;;27.36;21.38;102034.27;105633;277;38291;-75
2023/05/08 07:06:57;;;;;;;5.30;3.10;;;;;;;27.28;21.05;102033.27;105663;277;39442;-75
2023/05/08 07:09:35;;;;;;;4.10;2.80;;;;;;;27.15;21.27;102032.56;105629;277;39238;-75
2023/05/08 07:12:15;;;;;;;3.70;2.60;;;;;;;27.17;21.49;102034.16;105652;277;38846;-74
2023/05/08 07:14:51;;;;;;;6.20;3.10;;;;;;;27.13;21.18;102033.29;105635;277;38398;-74
2023/05/08 07:17:26;;;;;;;4.10;3.00;;;;;;;27.09;21.55;102036.16;105661;277;38446;-75
2023/05/08 07:20:02;;;;;;;3.50;2.40;;;;;;;27.18;21.41;102037.92;105617;277;39769;-75
2023/05/08 07:22:39;;;;;;;3.50;2.20;;;;;;;27.46;21.15;102033.63;105634;277;39578;-73
2023/05/08 07:25:15;;;;;;;3.60;2.20;;;;;;;27.58;21.19;102037.05;105668;277;40016;-73
2023/05/08 07:27:51;;;;;;;3.10;2.40;;;;;;;27.56;20.45;102038.30;106055;277;38527;-76
2023/05/08 07:30:27;;;;;;;5.80;2.30;;;;;;;27.59;20.39;102041.84;106048;277;39442;-75
2023/05/08 07:33:05;;;;;;;2.40;2.20;;;;;;;27.87;20.42;102043.29;105662;277;39724;-75
2023/05/08 07:35:42;;;;;;;2.50;2.30;;;;;;;28.07;20.20;102044.61;105635;277;39408;-76
2023/05/08 07:38:18;;;;;;;5.70;2.50;;;;;;;28.26;19.77;102041.69;106034;277;39711;-75
2023/05/08 07:40:58;;;;;;;3.30;2.10;;;;;;;27.96;20.10;102042.52;105619;277;38344;-74
2023/05/08 07:43:33;;;;;;;3.80;1.90;;;;;;;27.91;19.96;102039.75;105602;277;39736;-74
2023/05/08 07:46:10;;;;;;;2.50;2.20;;;;;;;27.85;20.12;102040.40;105645;277;38472;-74
2023/05/08 07:48:45;;;;;;;3.20;1.70;;;;;;;27.91;19.61;102041.64;105386;277;38815;-77
2023/05/08 07:51:27;;;;;;;4.20;2.40;;;;;;;27.67;19.57;102039.45;105634;277;38263;-75
2023/05/08 07:54:05;;;;;;;3.90;2.80;;;;;;;27.46;20.08;102036.34;106024;277;38468;-76
2023/05/08 07:56:40;;;;;;;4.80;2.70;;;;;;;27.51;20.04;102034.98;105663;277;39789;-75
2023/05/08 07:59:15;;;;;;;5.10;2.70;;;;;;;27.79;19.92;102035.73;105700;277;38383;-75
2023/05/08 08:01:52;;;;;;;3.20;2.10;;;;;;;27.89;20.20;102035.89;105720;277;38937;-75
2023/05/08 08:04:28;;;;;;;2.80;1.80;;;;;;;28.30;20.31;102035.45;105740;277;39521;-75
2023/05/08 08:07:03;;;;;;;2.30;2.10;;;;;;;28.57;19.17;102039.19;105646;277;38760;-76
2023/05/08 08:09:43;;;;;;;3.90;2.10;;;;;;;28.49;18.92;102037.03;105037;277;883934;-76
2023/05/08 08:12:19;;;;;;;4.20;2.10;;;;;;;28.67;19.72;102042.80;105651;277;40411;-76
2023/05/08 08:14:58;;;;;;;2.90;1.70;;;;;;;29.14;19.11;102040.11;105377;278;38935;-76
2023/05/08 08:17:38;;;;;;;2.90;1.40;;;;;;;29.38;18.45;102038.24;105624;277;38409;-75
2023/05/08 08:20:14;;;;;;;3.30;1.70;;;;;;;29.22;18.16;102036.86;105629;277;38728;-75
2023/05/08 08:22:51;;;;;;;3.90;1.70;;;;;;;28.96;18.06;102036.66;105647;277;38553;-76
2023/05/08 08:25:27;;;;;;;2.70;1.90;;;;;;;28.91;18.31;102032.94;106023;275;38490;-76
2023/05/08 08:28:08;;;;;;;4.30;1.90;;;;;;;29.17;18.52;102030.30;105415;277;38387;-76
2023/05/08 08:30:46;;;;;;;3.70;1.90;;;;;;;29.49;18.52;102024.30;105670;277;39924;-76
2023/05/08 08:33:22;;;;;;;3.90;1.50;;;;;;;29.54;18.16;102018.25;105646;277;38655;-76
2023/05/08 08:35:56;;;;;;;3.70;1.80;;;;;;;29.48;18.47;102015.40;106067;277;39816;-75
2023/05/08 08:38:36;;;;;;;3.50;2.00;;;;;;;29.57;18.43;102015.27;106061;277;39629;-75
2023/05/08 08:41:10;;;;;;;3.10;1.60;;;;;;;29.54;17.93;102017.88;106054;277;38836;-75
2023/05/08 08:43:53;;;;;;;2.50;1.70;;;;;;;29.50;17.29;102020.38;105625;277;38480;-75
2023/05/08 08:46:28;;;;;;;3.30;2.20;;;;;;;29.43;17.84;102017.30;105359;278;38507;-77
2023/05/08 08:49:04;;;;;;;3.00;1.90;;;;;;;29.18;17.77;102022.45;105666;277;38332;-76
2023/05/08 08:51:46;;;;;;;2.90;1.90;;;;;;;29.20;17.70;102013.27;105624;277;38368;-74
2023/05/08 08:54:25;;;;;;;3.10;2.20;;;;;;;28.98;18.07;102017.39;106043;277;39708;-74
2023/05/08 08:57:00;;;;;;;3.40;1.80;;;;;;;28.55;18.11;102016.00;105644;277;39899;-75
2023/05/08 08:59:36;;;;;;;2.40;1.90;;;;;;;28.13;18.21;102009.26;106109;277;39417;-75
2023/05/08 09:02:16;;;;;;;3.10;2.00;;;;;;;28.22;17.97;102007.27;105655;277;38979;-75
2023/05/08 09:04:55;;;;;;;2.60;1.90;;;;;;;28.31;18.47;102008.40;105634;277;39404;-75
2023/05/08 09:07:30;;;;;;;2.70;1.60;;;;;;;28.71;18.35;102007.27;105428;277;885810;-74
2023/05/08 09:10:14;;;;;;;2.30;1.80;;;;;;;29.04;17.30;102006.81;105657;277;38239;-74
2023/05/08 09:12:51;;;;;;;2.80;2.10;;;;;;;29.15;17.41;102008.17;105666;277;38580;-74
2023/05/08 09:15:28;;;;;;;5.20;2.00;;;;;;;28.41;17.18;102007.23;106023;277;38642;-75
2023/05/08 09:18:05;;;;;;;4.40;2.20;;;;;;;27.49;18.67;102004.46;105673;277;39961;-76
2023/05/08 09:20:41;;;;;;;5.40;1.90;;;;;;;27.36;18.80;102003.83;106065;277;39642;-76
2023/05/08 09:23:17;;;;;;;3.10;1.90;;;;;;;26.66;18.78;102003.77;105638;277;40408;-76
2023/05/08 09:25:55;;;;;;;3.10;1.60;;;;;;;25.27;18.90;102006.02;105411;277;39395;-75
2023/05/08 09:28:28;;;;;;;;;;;;;;;24.04;20.54;102010.16;105672;277;38964;-74
2023/05/08 09:31:03;;;;;;;2.20;2.00;;;;;;;23.51;20.78;102009.48;105647;277;38519;-74
2023/05/08 09:33:44;;;;;;;2.30;2.10;;;;;;;23.23;20.46;102007.04;106025;277;40110;-74
2023/05/08 09:36:30;;;;;;;2.20;1.80;;;;;;;22.59;21.19;102010.41;105455;277;676951;-74
2023/05/08 09:39:10;;;;;;;2.50;1.90;;;;;;;21.98;21.81;102011.25;106051;277;39959;-74
2023/05/08 09:41:58;;;;;;;3.60;2.00;;;;;;;21.87;22.66;102001.27;106056;277;39594;-73
2023/05/08 09:44:45;;;;;;;4.10;2.20;;;;;;;22.06;22.63;102002.77;106076;277;38769;-73
2023/05/08 09:47:20;;;;;;;4.60;2.20;;;;;;;22.11;22.32;102001.22;106092;277;38690;-73
2023/05/08 09:50:06;;;;;;;4.00;2.50;;;;;;;22.14;23.52;101995.37;106081;277;40475;-74
2023/05/08 09:52:46;;;;;;;5.50;2.50;;;;;;;22.19;22.96;101993.48;105394;278;39586;-76
2023/05/08 09:55:25;;;;;;;3.80;1.80;;;;;;;22.12;22.39;101993.52;106095;277;38380;-76
2023/05/08 09:57:59;;;;;;;;;;;;;;;21.95;22.24;101997.00;105694;277;38242;-74
2023/05/08 10:00:34;;;;;;;3.40;2.30;;;;;;;21.90;23.02;101993.45;105652;277;39399;-74
2023/05/08 10:03:10;;;;;;;3.50;2.50;;;;;;;22.00;22.68;101989.44;105648;277;38463;-73
2023/05/08 10:05:46;;;;;;;5.10;2.10;;;;;;;21.92;23.01;101981.77;105663;277;38262;-73
2023/05/08 10:08:28;;;;;;;2.20;1.90;;;;;;;21.65;23.36;101988.16;106144;277;38410;-73
2023/05/08 10:11:20;;;;;;;3.30;2.40;;;;;;;21.36;23.33;101978.64;105696;277;39699;-73
2023/05/08 10:13:56;;;;;;;4.60;2.20;;;;;;;21.10;23.53;101979.92;105652;276;39728;-73
2023/05/08 10:16:30;;;;;;;3.10;2.10;;;;;;;20.81;24.21;101981.58;105682;276;39127;-73
2023/05/08 10:19:12;;;;;;;1.90;1.70;;;;;;;20.87;24.57;101981.20;105659;276;39925;-73
2023/05/08 10:21:50;;;;;;;2.30;1.80;;;;;;;20.99;23.85;101977.21;105665;276;38519;-73
2023/05/08 10:24:32;;;;;;;4.30;2.00;;;;;;;20.86;23.78;101973.11;106050;276;174220;-73
2023/05/08 10:27:17;;;;;;;4.30;1.80;;;;;;;20.83;24.11;101970.42;105675;276;38569;-74
2023/05/08 10:30:02;;;;;;;5.80;2.00;;;;;;;20.94;24.54;101964.51;105647;276;39389;-74
2023/05/08 10:32:46;;;;;;;1.70;1.60;;;;;;;20.73;23.87;101970.64;106120;277;38463;-74
2023/05/08 10:35:23;;;;;;;3.00;1.80;;;;;;;20.54;23.90;101968.00;106102;276;38492;-74
2023/05/08 10:37:58;;;;;;;1.60;1.40;;;;;;;20.31;23.33;101971.52;105679;277;38639;-73
2023/05/08 10:40:33;;;;;;;3.30;1.80;;;;;;;19.91;23.37;101973.77;105668;276;38529;-73
2023/05/08 10:43:10;;;;;;;4.90;1.70;;;;;;;19.49;23.90;101968.27;106143;276;39515;-73
2023/05/08 10:45:48;;;;;;;4.10;1.70;;;;;;;19.13;24.67;101966.30;105654;276;38458;-74
2023/05/08 10:48:29;;;;;;;2.20;1.60;;;;;;;19.16;24.74;101963.69;105535;276;173935;-74
2023/05/08 10:51:10;;;;;;;2.90;1.60;;;;;;;19.21;24.74;101963.98;105396;277;39072;-74
2023/05/08 10:53:52;;;;;;;5.10;2.20;;;;;;;18.99;25.27;101965.04;105401;276;38880;-74
2023/05/08 10:56:33;;;;;;;3.60;2.30;;;;;;;18.75;25.33;101961.95;105676;277;38626;-73
2023/05/08 10:59:10;;;;;;;3.40;1.90;;;;;;;18.37;25.35;101967.17;105659;276;38492;-73
2023/05/08 11:01:44;;;;;;;2.60;1.90;;;;;;;17.97;25.25;101967.02;105684;276;39988;-73
2023/05/08 11:04:35;;;;;;;2.10;1.80;;;;;;;17.70;25.75;101964.96;105660;277;38499;-73
2023/05/08 11:07:14;;;;;;;4.00;2.20;;;;;;;17.50;25.93;101964.41;105645;276;38515;-75
2023/05/08 11:09:51;;;;;;;3.50;2.30;;;;;;;17.40;26.44;101961.80;106161;276;39427;-75
2023/05/08 11:12:36;;;;;;;3.20;2.60;;;;;;;17.38;26.41;101959.80;105678;277;38391;-73
2023/05/08 11:15:11;;;;;;;4.20;1.90;;;;;;;17.24;26.68;101963.02;105558;276;174077;-73
2023/05/08 11:17:51;;;;;;;3.30;2.10;;;;;;;17.03;27.12;101957.14;106130;276;40118;-74
2023/05/08 11:20:55;;;;;;;3.10;2.00;;;;;;;16.94;27.13;101950.98;106125;276;38528;-74
2023/05/08 11:23:31;;;;;;;2.80;1.80;;;;;;;16.91;26.70;101946.50;105657;277;38633;-74
2023/05/08 11:26:07;;;;;;;3.40;1.50;;;;;;;16.98;26.57;101942.73;105639;276;38345;-73
2023/05/08 11:28:58;;;;;;;3.10;1.50;;;;;;;17.04;26.55;101934.19;106127;276;38293;-74
2023/05/08 11:31:57;;;;;;;2.80;2.10;;;;;;;17.04;26.79;101937.70;105658;276;38257;-74
2023/05/08 11:34:51;;;;;;;5.00;2.50;;;;;;;17.15;26.55;101935.52;105024;276;893265;-74
2023/05/08 11:37:28;;;;;;;4.00;2.00;;;;;;;17.26;26.61;101933.27;105389;276;38509;-74
2023/05/08 11:40:18;;;;;;;3.00;2.30;;;;;;;17.33;26.39;101925.61;105649;276;40147;-74
2023/05/08 11:42:52;;;;;;;3.40;1.70;;;;;;;17.40;26.57;101924.08;105664;276;38269;-74
2023/05/08 11:45:29;;;;;;;3.30;2.10;;;;;;;17.48;26.64;101926.35;105655;276;38807;-74
2023/05/08 11:48:04;;;;;;;2.60;1.70;;;;;;;17.49;26.26;101923.14;105653;276;39820;-73
2023/05/08 11:50:42;;;;;;;3.10;1.60;;;;;;;17.50;26.31;101922.05;106136;276;39651;-74
2023/05/08 11:53:19;;;;;;;3.50;2.10;;;;;;;17.51;26.30;101933.11;105690;276;38328;-74
2023/05/08 11:55:57;;;;;;;2.20;1.80;;;;;;;17.34;26.18;101924.67;106125;276;38876;-74
2023/05/08 11:58:32;;;;;;;2.30;2.10;;;;;;;17.09;26.32;101927.63;105652;276;39185;-74
2023/05/08 12:01:07;;;;;;;3.90;1.80;;;;;;;17.06;26.64;101920.73;105646;276;38396;-75
2023/05/08 12:03:42;;;;;;;2.20;2.00;;;;;;;17.08;26.88;101926.08;105662;276;38762;-75
2023/05/08 12:06:22;;;;;;;2.70;2.10;;;;;;;17.06;26.40;101927.21;105667;280;39319;-73
2023/05/08 12:08:58;;;;;;;4.60;1.90;;;;;;;17.02;26.45;101923.50;106095;276;38587;-73
2023/05/08 12:11:33;;;;;;;1.80;1.60;;;;;;;17.02;26.52;101921.59;105669;276;38384;-73
2023/05/08 12:14:09;;;;;;;2.70;1.90;;;;;;;16.84;26.47;101921.06;105687;276;39514;-74
2023/05/08 12:16:47;;;;;;;2.70;1.90;;;;;;;16.76;26.91;101917.51;105672;277;39759;-73
2023/05/08 12:19:21;;;;;;;2.10;1.90;;;;;;;16.84;26.96;101915.07;106142;276;38546;-73